sensor_id;sensor_type;location;lat;lon;timestamp;pressure;altitude;pressure_sealevel;temperature;humidity
71805;BME280;59654;52.216;5.616;2023-05-25T00:00:19;102400.22;;;8.93;85.96
71805;BME280;59654;52.216;5.616;2023-05-25T00:00:50;102397.56;;;8.91;85.90
71805;BME280;59654;52.216;5.616;2023-05-25T00:01:20;102396.69;;;8.90;86.88
71805;BME280;59654;52.216;5.616;2023-05-25T00:01:53;102394.91;;;8.91;86.19
71805;BME280;59654;52.216;5.616;2023-05-25T00:02:25;102400.22;;;8.93;87.08
71805;BME280;59654;52.216;5.616;2023-05-25T00:02:56;102400.22;;;8.93;86.23
71805;BME280;59654;52.216;5.616;2023-05-25T00:03:26;102397.56;;;8.94;86.50
71805;BME280;59654;52.216;5.616;2023-05-25T00:04:00;102400.22;;;8.94;87.02
71805;BME280;59654;52.216;5.616;2023-05-25T00:04:34;102394.91;;;8.93;87.32
71805;BME280;59654;52.216;5.616;2023-05-25T00:05:08;102401.09;;;8.93;87.05
71805;BME280;59654;52.216;5.616;2023-05-25T00:05:38;102394.03;;;8.92;86.15
71805;BME280;59654;52.216;5.616;2023-05-25T00:06:10;102396.69;;;8.90;86.20
71805;BME280;59654;52.216;5.616;2023-05-25T00:06:42;102398.47;;;8.91;85.38
71805;BME280;59654;52.216;5.616;2023-05-25T00:07:15;102387.81;;;8.90;85.46
71805;BME280;59654;52.216;5.616;2023-05-25T00:07:46;102395.81;;;8.90;85.14
71805;BME280;59654;52.216;5.616;2023-05-25T00:08:17;102391.38;;;8.87;85.13
71805;BME280;59654;52.216;5.616;2023-05-25T00:08:47;102387.00;;;8.85;86.32
71805;BME280;59654;52.216;5.616;2023-05-25T00:09:20;102386.09;;;8.84;85.41
71805;BME280;59654;52.216;5.616;2023-05-25T00:09:51;102388.75;;;8.84;85.74
71805;BME280;59654;52.216;5.616;2023-05-25T00:10:22;102394.97;;;8.83;86.12
71805;BME280;59654;52.216;5.616;2023-05-25T00:10:53;102392.31;;;8.82;85.72
71805;BME280;59654;52.216;5.616;2023-05-25T00:11:24;102386.13;;;8.80;84.97
71805;BME280;59654;52.216;5.616;2023-05-25T00:11:55;102395.88;;;8.79;85.26
71805;BME280;59654;52.216;5.616;2023-05-25T00:12:28;102385.25;;;8.76;86.30
71805;BME280;59654;52.216;5.616;2023-05-25T00:13:00;102395.00;;;8.76;86.57
71805;BME280;59654;52.216;5.616;2023-05-25T00:13:30;102392.34;;;8.76;86.07
71805;BME280;59654;52.216;5.616;2023-05-25T00:14:01;102392.31;;;8.74;85.96
71805;BME280;59654;52.216;5.616;2023-05-25T00:14:32;102393.22;;;8.76;85.88
71805;BME280;59654;52.216;5.616;2023-05-25T00:15:06;102391.44;;;8.75;86.27
71805;BME280;59654;52.216;5.616;2023-05-25T00:15:37;102393.19;;;8.75;86.19
71805;BME280;59654;52.216;5.616;2023-05-25T00:16:08;102396.75;;;8.75;85.27
71805;BME280;59654;52.216;5.616;2023-05-25T00:16:40;102391.44;;;8.74;84.78
71805;BME280;59654;52.216;5.616;2023-05-25T00:17:10;102388.78;;;8.72;84.95
71805;BME280;59654;52.216;5.616;2023-05-25T00:17:41;102399.41;;;8.72;84.99
71805;BME280;59654;52.216;5.616;2023-05-25T00:18:12;102391.44;;;8.71;84.90
71805;BME280;59654;52.216;5.616;2023-05-25T00:18:43;102392.38;;;8.68;84.57
71805;BME280;59654;52.216;5.616;2023-05-25T00:19:14;102387.97;;;8.64;84.86
71805;BME280;59654;52.216;5.616;2023-05-25T00:19:45;102396.81;;;8.63;85.44
71805;BME280;59654;52.216;5.616;2023-05-25T00:20:15;102394.16;;;8.62;85.25
71805;BME280;59654;52.216;5.616;2023-05-25T00:20:47;102399.50;;;8.60;85.08
71805;BME280;59654;52.216;5.616;2023-05-25T00:21:18;102393.28;;;8.58;84.88
71805;BME280;59654;52.216;5.616;2023-05-25T00:21:49;102390.63;;;8.56;84.83
71805;BME280;59654;52.216;5.616;2023-05-25T00:22:20;102391.53;;;8.55;85.39
71805;BME280;59654;52.216;5.616;2023-05-25T00:22:51;102393.31;;;8.55;85.11
71805;BME280;59654;52.216;5.616;2023-05-25T00:23:25;102391.56;;;8.52;85.91
71805;BME280;59654;52.216;5.616;2023-05-25T00:23:56;102395.97;;;8.53;85.11
71805;BME280;59654;52.216;5.616;2023-05-25T00:24:30;102398.66;;;8.52;85.06
71805;BME280;59654;52.216;5.616;2023-05-25T00:25:02;102396.00;;;8.50;85.96
71805;BME280;59654;52.216;5.616;2023-05-25T00:25:33;102399.56;;;8.48;85.27
71805;BME280;59654;52.216;5.616;2023-05-25T00:26:04;102389.81;;;8.45;85.73
71805;BME280;59654;52.216;5.616;2023-05-25T00:26:36;102400.47;;;8.44;86.08
71805;BME280;59654;52.216;5.616;2023-05-25T00:27:06;102396.94;;;8.39;85.17
71805;BME280;59654;52.216;5.616;2023-05-25T00:27:37;102396.09;;;8.32;86.50
71805;BME280;59654;52.216;5.616;2023-05-25T00:28:10;102399.63;;;8.28;86.17
71805;BME280;59654;52.216;5.616;2023-05-25T00:28:40;102404.06;;;8.25;86.81
71805;BME280;59654;52.216;5.616;2023-05-25T00:29:11;102400.53;;;8.22;87.04
71805;BME280;59654;52.216;5.616;2023-05-25T00:29:44;102398.81;;;8.18;86.57
71805;BME280;59654;52.216;5.616;2023-05-25T00:30:15;102404.13;;;8.17;86.95
71805;BME280;59654;52.216;5.616;2023-05-25T00:30:46;102408.53;;;8.16;87.55
71805;BME280;59654;52.216;5.616;2023-05-25T00:31:16;102400.56;;;8.15;87.72
71805;BME280;59654;52.216;5.616;2023-05-25T00:31:47;102401.47;;;8.14;87.08
71805;BME280;59654;52.216;5.616;2023-05-25T00:32:20;102403.22;;;8.13;86.78
71805;BME280;59654;52.216;5.616;2023-05-25T00:32:51;102398.81;;;8.14;86.91
71805;BME280;59654;52.216;5.616;2023-05-25T00:33:23;102404.13;;;8.12;87.38
71805;BME280;59654;52.216;5.616;2023-05-25T00:33:54;102407.66;;;8.14;87.49
71805;BME280;59654;52.216;5.616;2023-05-25T00:34:24;102415.63;;;8.13;87.21
71805;BME280;59654;52.216;5.616;2023-05-25T00:34:55;102403.22;;;8.13;86.57
71805;BME280;59654;52.216;5.616;2023-05-25T00:35:26;102415.63;;;8.13;86.50
71805;BME280;59654;52.216;5.616;2023-05-25T00:35:57;102412.97;;;8.13;86.65
71805;BME280;59654;52.216;5.616;2023-05-25T00:36:28;102414.75;;;8.12;86.17
71805;BME280;59654;52.216;5.616;2023-05-25T00:36:58;102414.75;;;8.12;86.02
71805;BME280;59654;52.216;5.616;2023-05-25T00:37:31;102420.06;;;8.12;87.16
71805;BME280;59654;52.216;5.616;2023-05-25T00:38:01;102413.88;;;8.10;87.36
71805;BME280;59654;52.216;5.616;2023-05-25T00:38:32;102420.06;;;8.06;87.82
71805;BME280;59654;52.216;5.616;2023-05-25T00:39:03;102415.69;;;8.01;87.42
71805;BME280;59654;52.216;5.616;2023-05-25T00:39:34;102415.69;;;7.96;87.79
71805;BME280;59654;52.216;5.616;2023-05-25T00:40:09;102421.88;;;7.91;88.27
71805;BME280;59654;52.216;5.616;2023-05-25T00:40:45;102420.13;;;7.83;87.79
71805;BME280;59654;52.216;5.616;2023-05-25T00:41:17;102425.44;;;7.79;88.02
71805;BME280;59654;52.216;5.616;2023-05-25T00:41:48;102421.00;;;7.75;88.09
71805;BME280;59654;52.216;5.616;2023-05-25T00:42:19;102418.38;;;7.70;88.31
71805;BME280;59654;52.216;5.616;2023-05-25T00:42:51;102419.28;;;7.68;89.21
71805;BME280;59654;52.216;5.616;2023-05-25T00:43:22;102418.38;;;7.66;88.29
71805;BME280;59654;52.216;5.616;2023-05-25T00:43:53;102410.41;;;7.66;88.55
71805;BME280;59654;52.216;5.616;2023-05-25T00:44:24;102413.06;;;7.66;89.25
71805;BME280;59654;52.216;5.616;2023-05-25T00:44:55;102416.63;;;7.66;88.83
71805;BME280;59654;52.216;5.616;2023-05-25T00:45:28;102417.50;;;7.65;89.23
71805;BME280;59654;52.216;5.616;2023-05-25T00:45:59;102420.16;;;7.67;89.25
71805;BME280;59654;52.216;5.616;2023-05-25T00:46:31;102417.50;;;7.68;88.25
71805;BME280;59654;52.216;5.616;2023-05-25T00:47:03;102413.97;;;7.69;88.73
71805;BME280;59654;52.216;5.616;2023-05-25T00:47:34;102423.66;;;7.72;88.17
71805;BME280;59654;52.216;5.616;2023-05-25T00:48:05;102421.91;;;7.74;88.83
71805;BME280;59654;52.216;5.616;2023-05-25T00:48:38;102419.25;;;7.75;88.02
71805;BME280;59654;52.216;5.616;2023-05-25T00:49:11;102415.69;;;7.76;87.75
71805;BME280;59654;52.216;5.616;2023-05-25T00:49:43;102417.47;;;7.77;87.20
71805;BME280;59654;52.216;5.616;2023-05-25T00:50:15;102413.94;;;7.78;87.61
71805;BME280;59654;52.216;5.616;2023-05-25T00:50:47;102421.00;;;7.79;87.16
71805;BME280;59654;52.216;5.616;2023-05-25T00:51:18;102413.06;;;7.79;87.20
71805;BME280;59654;52.216;5.616;2023-05-25T00:51:51;102415.72;;;7.79;87.81
71805;BME280;59654;52.216;5.616;2023-05-25T00:52:22;102412.16;;;7.80;87.19
71805;BME280;59654;52.216;5.616;2023-05-25T00:52:53;102413.94;;;7.78;87.43
71805;BME280;59654;52.216;5.616;2023-05-25T00:53:24;102419.25;;;7.77;87.42
71805;BME280;59654;52.216;5.616;2023-05-25T00:53:55;102411.28;;;7.75;87.33
71805;BME280;59654;52.216;5.616;2023-05-25T00:54:26;102415.69;;;7.73;87.75
71805;BME280;59654;52.216;5.616;2023-05-25T00:54:59;102415.69;;;7.72;88.35
71805;BME280;59654;52.216;5.616;2023-05-25T00:55:35;102409.53;;;7.70;88.36
71805;BME280;59654;52.216;5.616;2023-05-25T00:56:24;102413.06;;;7.69;88.48
71805;BME280;59654;52.216;5.616;2023-05-25T00:57:01;102418.38;;;7.69;87.79
71805;BME280;59654;52.216;5.616;2023-05-25T00:57:37;102412.19;;;7.68;87.67
71805;BME280;59654;52.216;5.616;2023-05-25T00:58:12;102417.50;;;7.68;88.02
71805;BME280;59654;52.216;5.616;2023-05-25T00:58:50;102414.84;;;7.67;88.28
71805;BME280;59654;52.216;5.616;2023-05-25T01:00:16;102416.63;;;7.66;87.45
71805;BME280;59654;52.216;5.616;2023-05-25T01:00:49;102413.97;;;7.66;88.59
71805;BME280;59654;52.216;5.616;2023-05-25T01:01:24;102420.16;;;7.64;87.54
71805;BME280;59654;52.216;5.616;2023-05-25T01:01:58;102410.41;;;7.63;88.47
71805;BME280;59654;52.216;5.616;2023-05-25T01:02:33;102418.38;;;7.64;88.58
71805;BME280;59654;52.216;5.616;2023-05-25T01:03:10;102426.34;;;7.64;88.68
71805;BME280;59654;52.216;5.616;2023-05-25T01:03:47;102420.16;;;7.64;87.76
71805;BME280;59654;52.216;5.616;2023-05-25T01:04:25;102416.59;;;7.65;88.48
71805;BME280;59654;52.216;5.616;2023-05-25T01:05:00;102423.69;;;7.63;88.04
71805;BME280;59654;52.216;5.616;2023-05-25T01:05:33;102421.03;;;7.63;87.34
71805;BME280;59654;52.216;5.616;2023-05-25T01:06:13;102421.91;;;7.62;87.83
71805;BME280;59654;52.216;5.616;2023-05-25T01:06:47;102424.56;;;7.60;87.38
71805;BME280;59654;52.216;5.616;2023-05-25T01:07:23;102422.81;;;7.55;86.70
71805;BME280;59654;52.216;5.616;2023-05-25T01:07:59;102425.47;;;7.51;86.91
71805;BME280;59654;52.216;5.616;2023-05-25T01:08:34;102414.84;;;7.50;87.03
71805;BME280;59654;52.216;5.616;2023-05-25T01:09:07;102415.72;;;7.47;87.29
71805;BME280;59654;52.216;5.616;2023-05-25T01:09:44;102417.50;;;7.45;88.17
71805;BME280;59654;52.216;5.616;2023-05-25T01:10:16;102420.16;;;7.45;87.50
71805;BME280;59654;52.216;5.616;2023-05-25T01:10:51;102417.50;;;7.44;88.13
71805;BME280;59654;52.216;5.616;2023-05-25T01:11:28;102429.00;;;7.44;88.08
71805;BME280;59654;52.216;5.616;2023-05-25T01:12:02;102426.34;;;7.43;87.63
71805;BME280;59654;52.216;5.616;2023-05-25T01:12:36;102415.72;;;7.43;87.95
71805;BME280;59654;52.216;5.616;2023-05-25T01:13:09;102426.34;;;7.41;86.89
71805;BME280;59654;52.216;5.616;2023-05-25T01:13:43;102425.47;;;7.42;87.29
71805;BME280;59654;52.216;5.616;2023-05-25T01:14:18;102425.47;;;7.42;87.58
71805;BME280;59654;52.216;5.616;2023-05-25T01:14:55;102428.09;;;7.42;87.00
71805;BME280;59654;52.216;5.616;2023-05-25T01:15:29;102415.72;;;7.43;87.14
71805;BME280;59654;52.216;5.616;2023-05-25T01:16:01;102431.66;;;7.43;87.92
71805;BME280;59654;52.216;5.616;2023-05-25T01:16:32;102420.16;;;7.42;87.66
71805;BME280;59654;52.216;5.616;2023-05-25T01:17:05;102428.09;;;7.42;87.25
71805;BME280;59654;52.216;5.616;2023-05-25T01:17:37;102428.09;;;7.41;87.41
71805;BME280;59654;52.216;5.616;2023-05-25T01:18:09;102423.72;;;7.38;87.19
71805;BME280;59654;52.216;5.616;2023-05-25T01:18:44;102430.75;;;7.39;88.02
71805;BME280;59654;52.216;5.616;2023-05-25T01:19:15;102424.59;;;7.39;88.19
71805;BME280;59654;52.216;5.616;2023-05-25T01:19:46;102429.91;;;7.37;87.64
71805;BME280;59654;52.216;5.616;2023-05-25T01:20:17;102430.78;;;7.36;87.78
71805;BME280;59654;52.216;5.616;2023-05-25T01:21:06;102436.97;;;7.34;87.33
71805;BME280;59654;52.216;5.616;2023-05-25T01:23:31;102436.03;;;7.18;88.44
71805;BME280;59654;52.216;5.616;2023-05-25T01:24:51;102428.91;;;7.08;88.75
71805;BME280;59654;52.216;5.616;2023-05-25T01:25:35;102433.34;;;6.98;89.01
71805;BME280;59654;52.216;5.616;2023-05-25T01:26:14;102432.44;;;6.89;89.07
71805;BME280;59654;52.216;5.616;2023-05-25T01:27:05;102434.16;;;6.79;89.20
71805;BME280;59654;52.216;5.616;2023-05-25T01:28:02;102440.34;;;6.70;89.46
71805;BME280;59654;52.216;5.616;2023-05-25T01:28:41;102437.66;;;6.64;90.49
71805;BME280;59654;52.216;5.616;2023-05-25T01:29:18;102434.09;;;6.62;90.94
71805;BME280;59654;52.216;5.616;2023-05-25T01:29:52;102436.75;;;6.62;90.75
71805;BME280;59654;52.216;5.616;2023-05-25T01:30:28;102442.06;;;6.64;90.78
71805;BME280;59654;52.216;5.616;2023-05-25T01:31:01;102435.91;;;6.65;90.40
71805;BME280;59654;52.216;5.616;2023-05-25T01:31:34;102435.91;;;6.66;90.48
71805;BME280;59654;52.216;5.616;2023-05-25T01:32:08;102441.22;;;6.69;91.00
71805;BME280;59654;52.216;5.616;2023-05-25T01:32:42;102435.03;;;6.70;90.24
71805;BME280;59654;52.216;5.616;2023-05-25T01:33:17;102434.16;;;6.74;90.25
71805;BME280;59654;52.216;5.616;2023-05-25T01:33:51;102430.63;;;6.77;89.78
71805;BME280;59654;52.216;5.616;2023-05-25T01:34:25;102432.41;;;6.79;89.72
71805;BME280;59654;52.216;5.616;2023-05-25T01:34:59;102435.06;;;6.79;89.83
71805;BME280;59654;52.216;5.616;2023-05-25T01:35:32;102434.19;;;6.80;89.29
71805;BME280;59654;52.216;5.616;2023-05-25T01:36:04;102430.66;;;6.81;89.25
71805;BME280;59654;52.216;5.616;2023-05-25T01:36:36;102432.41;;;6.82;89.46
71805;BME280;59654;52.216;5.616;2023-05-25T01:37:10;102440.38;;;6.84;89.28
71805;BME280;59654;52.216;5.616;2023-05-25T01:37:46;102435.09;;;6.86;89.33
71805;BME280;59654;52.216;5.616;2023-05-25T01:38:17;102430.66;;;6.86;89.44
71805;BME280;59654;52.216;5.616;2023-05-25T01:38:48;102437.75;;;6.87;88.82
71805;BME280;59654;52.216;5.616;2023-05-25T01:39:20;102430.66;;;6.88;88.87
71805;BME280;59654;52.216;5.616;2023-05-25T01:39:51;102438.63;;;6.88;89.20
71805;BME280;59654;52.216;5.616;2023-05-25T01:40:22;102434.19;;;6.87;88.88
71805;BME280;59654;52.216;5.616;2023-05-25T01:40:53;102435.97;;;6.88;88.72
71805;BME280;59654;52.216;5.616;2023-05-25T01:41:24;102428.91;;;6.87;88.83
71805;BME280;59654;52.216;5.616;2023-05-25T01:41:55;102432.44;;;6.89;88.28
71805;BME280;59654;52.216;5.616;2023-05-25T01:42:26;102428.91;;;6.88;88.76
71805;BME280;59654;52.216;5.616;2023-05-25T01:42:58;102435.09;;;6.89;88.40
71805;BME280;59654;52.216;5.616;2023-05-25T01:43:29;102434.22;;;6.88;88.80
71805;BME280;59654;52.216;5.616;2023-05-25T01:44:00;102431.56;;;6.88;89.01
71805;BME280;59654;52.216;5.616;2023-05-25T01:44:31;102429.78;;;6.87;88.65
71805;BME280;59654;52.216;5.616;2023-05-25T01:45:02;102432.44;;;6.86;89.30
71805;BME280;59654;52.216;5.616;2023-05-25T01:45:36;102431.53;;;6.85;89.20
71805;BME280;59654;52.216;5.616;2023-05-25T01:47:20;102440.38;;;6.84;88.92
71805;BME280;59654;52.216;5.616;2023-05-25T01:48:05;102441.25;;;6.85;89.12
71805;BME280;59654;52.216;5.616;2023-05-25T01:51:33;102441.19;;;6.56;89.02
71805;BME280;59654;52.216;5.616;2023-05-25T01:52:18;102440.22;;;6.46;89.41
71805;BME280;59654;52.216;5.616;2023-05-25T01:52:55;102444.63;;;6.39;90.02
71805;BME280;59654;52.216;5.616;2023-05-25T01:53:42;102441.94;;;6.33;90.18
71805;BME280;59654;52.216;5.616;2023-05-25T01:54:20;102444.56;;;6.29;90.77
71805;BME280;59654;52.216;5.616;2023-05-25T01:55:05;102438.38;;;6.24;91.25
71805;BME280;59654;52.216;5.616;2023-05-25T01:55:54;102442.75;;;6.19;91.88
71805;BME280;59654;52.216;5.616;2023-05-25T01:56:30;102437.44;;;6.16;92.25
71805;BME280;59654;52.216;5.616;2023-05-25T01:57:06;102443.59;;;6.13;91.89
71805;BME280;59654;52.216;5.616;2023-05-25T01:57:43;102441.81;;;6.12;92.17
71805;BME280;59654;52.216;5.616;2023-05-25T01:58:17;102441.84;;;6.17;92.40
71805;BME280;59654;52.216;5.616;2023-05-25T01:58:50;102443.59;;;6.15;92.33
71805;BME280;59654;52.216;5.616;2023-05-25T01:59:25;102440.09;;;6.16;92.69
71805;BME280;59654;52.216;5.616;2023-05-25T01:59:56;102437.44;;;6.17;92.44
71805;BME280;59654;52.216;5.616;2023-05-25T02:00:31;102441.00;;;6.21;92.21
71805;BME280;59654;52.216;5.616;2023-05-25T02:01:02;102445.44;;;6.23;91.94
71805;BME280;59654;52.216;5.616;2023-05-25T02:01:34;102439.25;;;6.24;91.77
71805;BME280;59654;52.216;5.616;2023-05-25T02:02:06;102447.19;;;6.26;91.83
71805;BME280;59654;52.216;5.616;2023-05-25T02:02:41;102445.44;;;6.29;91.84
71805;BME280;59654;52.216;5.616;2023-05-25T02:03:14;102443.69;;;6.31;91.10
71805;BME280;59654;52.216;5.616;2023-05-25T02:03:46;102451.66;;;6.34;90.74
71805;BME280;59654;52.216;5.616;2023-05-25T02:04:18;102446.38;;;6.36;90.14
71805;BME280;59654;52.216;5.616;2023-05-25T02:04:49;102448.16;;;6.37;90.07
71805;BME280;59654;52.216;5.616;2023-05-25T02:05:23;102445.50;;;6.37;89.74
71805;BME280;59654;52.216;5.616;2023-05-25T02:05:54;102444.63;;;6.36;89.93
71805;BME280;59654;52.216;5.616;2023-05-25T02:06:27;102446.38;;;6.36;89.80
71805;BME280;59654;52.216;5.616;2023-05-25T02:06:58;102441.97;;;6.36;89.85
71805;BME280;59654;52.216;5.616;2023-05-25T02:07:29;102447.28;;;6.38;89.94
71805;BME280;59654;52.216;5.616;2023-05-25T02:07:59;102443.75;;;6.39;89.62
71805;BME280;59654;52.216;5.616;2023-05-25T02:08:34;102443.75;;;6.40;89.56
71805;BME280;59654;52.216;5.616;2023-05-25T02:09:04;102441.09;;;6.43;88.87
71805;BME280;59654;52.216;5.616;2023-05-25T02:09:35;102441.97;;;6.42;89.21
71805;BME280;59654;52.216;5.616;2023-05-25T02:10:06;102438.44;;;6.42;89.51
71805;BME280;59654;52.216;5.616;2023-05-25T02:10:37;102442.00;;;6.41;88.98
71805;BME280;59654;52.216;5.616;2023-05-25T02:11:11;102439.34;;;6.39;89.27
71805;BME280;59654;52.216;5.616;2023-05-25T02:11:42;102441.97;;;6.38;89.40
71805;BME280;59654;52.216;5.616;2023-05-25T02:12:13;102439.31;;;6.36;88.97
71805;BME280;59654;52.216;5.616;2023-05-25T02:12:44;102443.72;;;6.36;89.10
71805;BME280;59654;52.216;5.616;2023-05-25T02:13:15;102439.28;;;6.33;88.99
71805;BME280;59654;52.216;5.616;2023-05-25T02:13:46;102435.75;;;6.31;88.81
71805;BME280;59654;52.216;5.616;2023-05-25T02:14:17;102449.88;;;6.30;89.11
71805;BME280;59654;52.216;5.616;2023-05-25T02:14:47;102443.69;;;6.30;88.95
71805;BME280;59654;52.216;5.616;2023-05-25T02:15:20;102446.34;;;6.30;89.27
71805;BME280;59654;52.216;5.616;2023-05-25T02:15:51;102439.25;;;6.29;89.44
71805;BME280;59654;52.216;5.616;2023-05-25T02:16:22;102448.97;;;6.30;89.54
71805;BME280;59654;52.216;5.616;2023-05-25T02:16:55;102439.25;;;6.29;89.32
71805;BME280;59654;52.216;5.616;2023-05-25T02:17:27;102450.75;;;6.31;89.83
71805;BME280;59654;52.216;5.616;2023-05-25T02:17:59;102449.88;;;6.30;89.71
71805;BME280;59654;52.216;5.616;2023-05-25T02:18:33;102446.31;;;6.28;89.69
71805;BME280;59654;52.216;5.616;2023-05-25T02:19:04;102443.66;;;6.28;89.56
71805;BME280;59654;52.216;5.616;2023-05-25T02:19:34;102444.53;;;6.27;89.85
71805;BME280;59654;52.216;5.616;2023-05-25T02:20:06;102443.66;;;6.28;89.66
71805;BME280;59654;52.216;5.616;2023-05-25T02:20:38;102440.13;;;6.28;89.53
71805;BME280;59654;52.216;5.616;2023-05-25T02:21:09;102441.91;;;6.29;89.94
71805;BME280;59654;52.216;5.616;2023-05-25T02:21:41;102440.16;;;6.29;89.97
71805;BME280;59654;52.216;5.616;2023-05-25T02:22:11;102448.09;;;6.29;89.91
71805;BME280;59654;52.216;5.616;2023-05-25T02:22:42;102447.22;;;6.30;90.16
71805;BME280;59654;52.216;5.616;2023-05-25T02:23:13;102441.03;;;6.30;89.40
71805;BME280;59654;52.216;5.616;2023-05-25T02:23:44;102445.44;;;6.28;89.66
71805;BME280;59654;52.216;5.616;2023-05-25T02:24:15;102441.91;;;6.29;89.80
71805;BME280;59654;52.216;5.616;2023-05-25T02:24:46;102440.16;;;6.29;89.91
71805;BME280;59654;52.216;5.616;2023-05-25T02:25:17;102435.72;;;6.28;90.02
71805;BME280;59654;52.216;5.616;2023-05-25T02:25:48;102442.78;;;6.28;89.81
71805;BME280;59654;52.216;5.616;2023-05-25T02:26:21;102444.53;;;6.27;90.05
71805;BME280;59654;52.216;5.616;2023-05-25T02:26:52;102441.00;;;6.27;90.21
71805;BME280;59654;52.216;5.616;2023-05-25T02:27:24;102444.53;;;6.26;90.19
71805;BME280;59654;52.216;5.616;2023-05-25T02:27:55;102442.78;;;6.25;89.57
71805;BME280;59654;52.216;5.616;2023-05-25T02:28:25;102439.25;;;6.24;89.87
71805;BME280;59654;52.216;5.616;2023-05-25T02:28:56;102447.19;;;6.26;89.90
71805;BME280;59654;52.216;5.616;2023-05-25T02:29:27;102445.41;;;6.26;89.63
71805;BME280;59654;52.216;5.616;2023-05-25T02:29:58;102440.13;;;6.26;89.04
71805;BME280;59654;52.216;5.616;2023-05-25T02:30:30;102446.34;;;6.25;89.09
71805;BME280;59654;52.216;5.616;2023-05-25T02:31:01;102441.03;;;6.24;88.44
71805;BME280;59654;52.216;5.616;2023-05-25T02:31:32;102448.97;;;6.24;89.01
71805;BME280;59654;52.216;5.616;2023-05-25T02:32:04;102451.63;;;6.24;89.13
71805;BME280;59654;52.216;5.616;2023-05-25T02:32:35;102455.16;;;6.23;88.66
71805;BME280;59654;52.216;5.616;2023-05-25T02:33:06;102446.28;;;6.21;88.67
71805;BME280;59654;52.216;5.616;2023-05-25T02:33:39;102447.16;;;6.20;88.87
71805;BME280;59654;52.216;5.616;2023-05-25T02:34:10;102456.91;;;6.21;89.03
71805;BME280;59654;52.216;5.616;2023-05-25T02:34:41;102455.13;;;6.20;88.76
71805;BME280;59654;52.216;5.616;2023-05-25T02:35:11;102459.53;;;6.19;88.57
71805;BME280;59654;52.216;5.616;2023-05-25T02:35:42;102462.19;;;6.19;88.79
71805;BME280;59654;52.216;5.616;2023-05-25T02:36:14;102457.75;;;6.18;88.64
71805;BME280;59654;52.216;5.616;2023-05-25T02:36:45;102455.97;;;6.17;88.43
71805;BME280;59654;52.216;5.616;2023-05-25T02:37:16;102460.38;;;6.17;88.48
71805;BME280;59654;52.216;5.616;2023-05-25T02:37:47;102459.50;;;6.16;88.71
71805;BME280;59654;52.216;5.616;2023-05-25T02:38:19;102458.59;;;6.14;89.01
71805;BME280;59654;52.216;5.616;2023-05-25T02:38:50;102456.84;;;6.13;88.94
71805;BME280;59654;52.216;5.616;2023-05-25T02:39:22;102453.28;;;6.12;89.06
71805;BME280;59654;52.216;5.616;2023-05-25T02:39:55;102455.97;;;6.16;88.94
71805;BME280;59654;52.216;5.616;2023-05-25T02:40:26;102461.22;;;6.11;88.41
71805;BME280;59654;52.216;5.616;2023-05-25T02:40:57;102459.47;;;6.08;88.47
71805;BME280;59654;52.216;5.616;2023-05-25T02:41:28;102460.34;;;6.07;88.69
71805;BME280;59654;52.216;5.616;2023-05-25T02:41:59;102449.72;;;6.04;88.74
71805;BME280;59654;52.216;5.616;2023-05-25T02:42:31;102455.03;;;6.04;89.01
71805;BME280;59654;52.216;5.616;2023-05-25T02:43:02;102455.91;;;6.03;89.12
71805;BME280;59654;52.216;5.616;2023-05-25T02:43:33;102452.38;;;6.04;89.41
71805;BME280;59654;52.216;5.616;2023-05-25T02:44:05;102449.72;;;6.04;89.35
71805;BME280;59654;52.216;5.616;2023-05-25T02:44:36;102459.44;;;6.02;89.02
71805;BME280;59654;52.216;5.616;2023-05-25T02:45:08;102455.00;;;6.01;89.20
71805;BME280;59654;52.216;5.616;2023-05-25T02:45:44;102456.75;;;5.99;89.23
71805;BME280;59654;52.216;5.616;2023-05-25T02:46:14;102456.72;;;5.96;89.50
71805;BME280;59654;52.216;5.616;2023-05-25T02:46:45;102454.97;;;5.97;89.41
71805;BME280;59654;52.216;5.616;2023-05-25T02:47:17;102454.94;;;5.95;89.81
71805;BME280;59654;52.216;5.616;2023-05-25T02:47:48;102458.47;;;5.94;89.18
71805;BME280;59654;52.216;5.616;2023-05-25T02:48:19;102458.47;;;5.94;89.23
71805;BME280;59654;52.216;5.616;2023-05-25T02:48:51;102459.34;;;5.93;89.44
71805;BME280;59654;52.216;5.616;2023-05-25T02:49:22;102446.13;;;5.92;89.16
71805;BME280;59654;52.216;5.616;2023-05-25T02:49:53;102457.56;;;5.89;88.94
71805;BME280;59654;52.216;5.616;2023-05-25T02:50:23;102456.69;;;5.89;89.12
71805;BME280;59654;52.216;5.616;2023-05-25T02:50:58;102458.44;;;5.88;89.04
71805;BME280;59654;52.216;5.616;2023-05-25T02:51:29;102460.22;;;5.89;89.25
71805;BME280;59654;52.216;5.616;2023-05-25T02:52:02;102461.97;;;5.89;89.13
71805;BME280;59654;52.216;5.616;2023-05-25T02:52:34;102462.84;;;5.86;89.08
71805;BME280;59654;52.216;5.616;2023-05-25T02:53:05;102458.44;;;5.88;89.33
71805;BME280;59654;52.216;5.616;2023-05-25T02:53:36;102469.06;;;5.90;88.68
71805;BME280;59654;52.216;5.616;2023-05-25T02:54:06;102460.22;;;5.89;88.85
71805;BME280;59654;52.216;5.616;2023-05-25T02:54:38;102462.00;;;5.90;88.77
71805;BME280;59654;52.216;5.616;2023-05-25T02:55:11;102461.09;;;5.90;88.49
71805;BME280;59654;52.216;5.616;2023-05-25T02:55:43;102463.75;;;5.90;88.52
71805;BME280;59654;52.216;5.616;2023-05-25T02:56:18;102462.88;;;5.89;88.40
71805;BME280;59654;52.216;5.616;2023-05-25T02:56:49;102459.34;;;5.89;88.25
71805;BME280;59654;52.216;5.616;2023-05-25T02:57:21;102463.75;;;5.88;88.21
71805;BME280;59654;52.216;5.616;2023-05-25T02:57:52;102470.81;;;5.89;88.80
71805;BME280;59654;52.216;5.616;2023-05-25T02:58:44;102466.38;;;5.87;88.56
71805;BME280;59654;52.216;5.616;2023-05-25T02:59:23;102467.25;;;5.87;88.65
71805;BME280;59654;52.216;5.616;2023-05-25T02:59:54;102468.13;;;5.86;88.47
71805;BME280;59654;52.216;5.616;2023-05-25T03:00:25;102465.50;;;5.86;88.17
71805;BME280;59654;52.216;5.616;2023-05-25T03:00:57;102466.38;;;5.87;88.21
71805;BME280;59654;52.216;5.616;2023-05-25T03:01:30;102464.59;;;5.86;88.17